Terminal Aerodrome Forecast
Issued by NWS Charleston, WV

Current Version | Previous Version | Text Only | Print | Product List | Glossary Off
Versions: 1 2 3 4 5 6 7 8 9 10 11 12 13 14 15 16 17 18 19 20 21 22 23 24 25 26 27 28

789
FTUS41 KRLX 132021 AAA
TAFBKW
TAF AMD
KBKW 132021Z 1320/1418 36005KT 1/4SM FG OVC002
     FM132100 00000KT 1SM BR OVC003
     FM132300 00000KT 3SM BR OVC005
     FM140300 VRB03KT 2SM -RA OVC004
     FM140600 13011KT 1/4SM -RA OVC002=

USA.gov is the U.S. government's official web portal to all federal, state and local government web resources and services.